sensor_id;sensor_type;location;lat;lon;timestamp;P1;durP1;ratioP1;P2;durP2;ratioP2
51686;SDS011;37774;52.192;4.584;2022-08-02T00:02:06;5.13;;;1.90;;
51686;SDS011;37774;52.192;4.584;2022-08-02T00:04:33;9.05;;;1.95;;
51686;SDS011;37774;52.192;4.584;2022-08-02T00:06:59;9.63;;;2.00;;
51686;SDS011;37774;52.192;4.584;2022-08-02T00:09:27;6.60;;;1.75;;
51686;SDS011;37774;52.192;4.584;2022-08-02T00:11:54;2.70;;;1.60;;
51686;SDS011;37774;52.192;4.584;2022-08-02T00:14:21;4.60;;;1.70;;
51686;SDS011;37774;52.192;4.584;2022-08-02T00:16:48;6.65;;;1.55;;
51686;SDS011;37774;52.192;4.584;2022-08-02T00:19:15;4.75;;;1.83;;
51686;SDS011;37774;52.192;4.584;2022-08-02T00:21:42;11.15;;;1.85;;
51686;SDS011;37774;52.192;4.584;2022-08-02T00:24:09;8.88;;;1.80;;
51686;SDS011;37774;52.192;4.584;2022-08-02T00:26:37;12.40;;;1.98;;
51686;SDS011;37774;52.192;4.584;2022-08-02T00:29:04;10.80;;;2.33;;
51686;SDS011;37774;52.192;4.584;2022-08-02T00:31:31;6.22;;;1.77;;
51686;SDS011;37774;52.192;4.584;2022-08-02T00:33:58;9.35;;;1.52;;
51686;SDS011;37774;52.192;4.584;2022-08-02T00:36:24;3.33;;;1.60;;
51686;SDS011;37774;52.192;4.584;2022-08-02T00:38:51;5.38;;;1.60;;
51686;SDS011;37774;52.192;4.584;2022-08-02T00:41:19;8.20;;;1.13;;
51686;SDS011;37774;52.192;4.584;2022-08-02T00:43:49;11.55;;;1.83;;
51686;SDS011;37774;52.192;4.584;2022-08-02T00:46:17;4.18;;;1.63;;
51686;SDS011;37774;52.192;4.584;2022-08-02T00:48:44;6.25;;;1.73;;
51686;SDS011;37774;52.192;4.584;2022-08-02T00:51:12;5.35;;;1.20;;
51686;SDS011;37774;52.192;4.584;2022-08-02T00:53:39;2.13;;;1.55;;
51686;SDS011;37774;52.192;4.584;2022-08-02T00:56:06;7.60;;;1.17;;
51686;SDS011;37774;52.192;4.584;2022-08-02T00:58:32;3.95;;;1.55;;
51686;SDS011;37774;52.192;4.584;2022-08-02T01:01:00;6.90;;;1.95;;
51686;SDS011;37774;52.192;4.584;2022-08-02T01:03:27;7.40;;;1.63;;
51686;SDS011;37774;52.192;4.584;2022-08-02T01:05:54;5.13;;;1.25;;
51686;SDS011;37774;52.192;4.584;2022-08-02T01:08:21;8.57;;;1.67;;
51686;SDS011;37774;52.192;4.584;2022-08-02T01:10:47;4.75;;;1.33;;
51686;SDS011;37774;52.192;4.584;2022-08-02T01:13:14;4.45;;;0.85;;
51686;SDS011;37774;52.192;4.584;2022-08-02T01:15:44;5.60;;;1.30;;
51686;SDS011;37774;52.192;4.584;2022-08-02T01:18:15;1.80;;;1.10;;
51686;SDS011;37774;52.192;4.584;2022-08-02T01:20:55;5.10;;;1.77;;
51686;SDS011;37774;52.192;4.584;2022-08-02T01:23:34;6.55;;;1.35;;
51686;SDS011;37774;52.192;4.584;2022-08-02T01:26:22;4.80;;;1.48;;
51686;SDS011;37774;52.192;4.584;2022-08-02T01:29:03;6.40;;;1.50;;
51686;SDS011;37774;52.192;4.584;2022-08-02T01:31:34;2.03;;;0.98;;
51686;SDS011;37774;52.192;4.584;2022-08-02T01:34:09;5.68;;;1.38;;
51686;SDS011;37774;52.192;4.584;2022-08-02T01:36:42;1.98;;;1.20;;
51686;SDS011;37774;52.192;4.584;2022-08-02T01:39:12;2.70;;;1.10;;
51686;SDS011;37774;52.192;4.584;2022-08-02T01:41:42;3.75;;;1.60;;
51686;SDS011;37774;52.192;4.584;2022-08-02T01:44:12;3.70;;;1.10;;
51686;SDS011;37774;52.192;4.584;2022-08-02T01:46:42;10.70;;;1.52;;
51686;SDS011;37774;52.192;4.584;2022-08-02T01:49:11;3.15;;;1.10;;
51686;SDS011;37774;52.192;4.584;2022-08-02T01:51:43;4.72;;;1.10;;
51686;SDS011;37774;52.192;4.584;2022-08-02T01:54:30;1.73;;;0.95;;
51686;SDS011;37774;52.192;4.584;2022-08-02T01:56:58;11.10;;;1.80;;
51686;SDS011;37774;52.192;4.584;2022-08-02T01:59:30;2.80;;;1.02;;
51686;SDS011;37774;52.192;4.584;2022-08-02T02:01:59;6.60;;;1.55;;
51686;SDS011;37774;52.192;4.584;2022-08-02T02:04:28;6.50;;;1.58;;
51686;SDS011;37774;52.192;4.584;2022-08-02T02:06:56;11.43;;;2.20;;
51686;SDS011;37774;52.192;4.584;2022-08-02T02:09:25;6.68;;;1.27;;
51686;SDS011;37774;52.192;4.584;2022-08-02T02:11:53;8.80;;;1.52;;
51686;SDS011;37774;52.192;4.584;2022-08-02T02:14:22;4.13;;;1.48;;
51686;SDS011;37774;52.192;4.584;2022-08-02T02:16:51;7.63;;;1.33;;
51686;SDS011;37774;52.192;4.584;2022-08-02T02:19:19;6.55;;;1.38;;
51686;SDS011;37774;52.192;4.584;2022-08-02T02:21:47;6.70;;;1.40;;
51686;SDS011;37774;52.192;4.584;2022-08-02T02:24:14;11.85;;;1.50;;
51686;SDS011;37774;52.192;4.584;2022-08-02T02:26:41;2.83;;;1.20;;
51686;SDS011;37774;52.192;4.584;2022-08-02T02:29:09;5.13;;;1.48;;
51686;SDS011;37774;52.192;4.584;2022-08-02T02:31:37;3.55;;;1.00;;
51686;SDS011;37774;52.192;4.584;2022-08-02T02:34:08;4.97;;;1.38;;
51686;SDS011;37774;52.192;4.584;2022-08-02T02:36:39;5.20;;;1.42;;
51686;SDS011;37774;52.192;4.584;2022-08-02T02:39:11;3.88;;;1.17;;
51686;SDS011;37774;52.192;4.584;2022-08-02T02:41:39;9.60;;;1.63;;
51686;SDS011;37774;52.192;4.584;2022-08-02T02:44:08;3.08;;;1.52;;
51686;SDS011;37774;52.192;4.584;2022-08-02T02:46:38;3.40;;;1.40;;
51686;SDS011;37774;52.192;4.584;2022-08-02T02:49:08;7.75;;;1.60;;
51686;SDS011;37774;52.192;4.584;2022-08-02T02:51:36;4.55;;;1.65;;
51686;SDS011;37774;52.192;4.584;2022-08-02T02:54:05;7.32;;;1.67;;
51686;SDS011;37774;52.192;4.584;2022-08-02T02:56:34;1.50;;;1.23;;
51686;SDS011;37774;52.192;4.584;2022-08-02T02:59:02;8.02;;;1.48;;
51686;SDS011;37774;52.192;4.584;2022-08-02T03:01:30;1.83;;;1.30;;
51686;SDS011;37774;52.192;4.584;2022-08-02T03:03:58;1.38;;;1.02;;
51686;SDS011;37774;52.192;4.584;2022-08-02T03:06:27;4.95;;;1.92;;
51686;SDS011;37774;52.192;4.584;2022-08-02T03:08:55;7.43;;;1.80;;
51686;SDS011;37774;52.192;4.584;2022-08-02T03:11:23;6.80;;;1.83;;
51686;SDS011;37774;52.192;4.584;2022-08-02T03:13:53;2.42;;;1.33;;
51686;SDS011;37774;52.192;4.584;2022-08-02T03:16:22;1.98;;;1.35;;
51686;SDS011;37774;52.192;4.584;2022-08-02T03:18:49;4.13;;;1.40;;
51686;SDS011;37774;52.192;4.584;2022-08-02T03:21:16;8.52;;;1.70;;
51686;SDS011;37774;52.192;4.584;2022-08-02T03:23:45;7.38;;;1.80;;
51686;SDS011;37774;52.192;4.584;2022-08-02T03:26:12;2.25;;;1.23;;
51686;SDS011;37774;52.192;4.584;2022-08-02T03:28:39;5.18;;;1.83;;
51686;SDS011;37774;52.192;4.584;2022-08-02T03:31:07;5.15;;;1.60;;
51686;SDS011;37774;52.192;4.584;2022-08-02T03:33:35;8.55;;;2.42;;
51686;SDS011;37774;52.192;4.584;2022-08-02T03:36:04;6.20;;;1.92;;
51686;SDS011;37774;52.192;4.584;2022-08-02T03:38:33;9.75;;;1.73;;
51686;SDS011;37774;52.192;4.584;2022-08-02T03:41:03;10.77;;;1.95;;
51686;SDS011;37774;52.192;4.584;2022-08-02T03:43:31;4.15;;;2.15;;
51686;SDS011;37774;52.192;4.584;2022-08-02T03:45:59;5.13;;;1.65;;
51686;SDS011;37774;52.192;4.584;2022-08-02T03:48:28;7.25;;;1.95;;
51686;SDS011;37774;52.192;4.584;2022-08-02T03:50:58;3.33;;;1.48;;
51686;SDS011;37774;52.192;4.584;2022-08-02T03:53:25;4.93;;;1.55;;
51686;SDS011;37774;52.192;4.584;2022-08-02T03:55:52;3.53;;;1.30;;
51686;SDS011;37774;52.192;4.584;2022-08-02T03:58:22;3.65;;;1.75;;
51686;SDS011;37774;52.192;4.584;2022-08-02T04:00:52;6.97;;;1.67;;
51686;SDS011;37774;52.192;4.584;2022-08-02T04:03:20;3.50;;;1.63;;
51686;SDS011;37774;52.192;4.584;2022-08-02T04:05:47;5.72;;;1.35;;
51686;SDS011;37774;52.192;4.584;2022-08-02T04:08:14;3.63;;;1.73;;
51686;SDS011;37774;52.192;4.584;2022-08-02T04:10:41;3.72;;;1.67;;
51686;SDS011;37774;52.192;4.584;2022-08-02T04:13:27;4.40;;;1.60;;
51686;SDS011;37774;52.192;4.584;2022-08-02T04:15:57;5.85;;;1.85;;
51686;SDS011;37774;52.192;4.584;2022-08-02T04:18:29;5.55;;;1.52;;
51686;SDS011;37774;52.192;4.584;2022-08-02T04:21:01;4.63;;;1.70;;
51686;SDS011;37774;52.192;4.584;2022-08-02T04:23:30;4.78;;;1.67;;
51686;SDS011;37774;52.192;4.584;2022-08-02T04:26:00;3.50;;;1.50;;
51686;SDS011;37774;52.192;4.584;2022-08-02T04:28:29;10.02;;;1.50;;
51686;SDS011;37774;52.192;4.584;2022-08-02T04:30:56;7.65;;;1.70;;
51686;SDS011;37774;52.192;4.584;2022-08-02T04:33:25;6.88;;;1.45;;
51686;SDS011;37774;52.192;4.584;2022-08-02T04:35:52;6.13;;;1.33;;
51686;SDS011;37774;52.192;4.584;2022-08-02T04:38:20;3.85;;;1.55;;
51686;SDS011;37774;52.192;4.584;2022-08-02T04:40:50;10.77;;;1.92;;
51686;SDS011;37774;52.192;4.584;2022-08-02T04:43:18;4.93;;;1.67;;
51686;SDS011;37774;52.192;4.584;2022-08-02T04:45:47;8.50;;;1.48;;
51686;SDS011;37774;52.192;4.584;2022-08-02T04:48:16;3.35;;;1.45;;
51686;SDS011;37774;52.192;4.584;2022-08-02T04:50:43;10.10;;;1.70;;
51686;SDS011;37774;52.192;4.584;2022-08-02T04:53:10;7.05;;;1.92;;
51686;SDS011;37774;52.192;4.584;2022-08-02T04:55:36;3.97;;;1.58;;
51686;SDS011;37774;52.192;4.584;2022-08-02T04:58:03;3.80;;;1.27;;
51686;SDS011;37774;52.192;4.584;2022-08-02T05:00:30;5.13;;;1.65;;
51686;SDS011;37774;52.192;4.584;2022-08-02T05:02:58;2.97;;;1.40;;
51686;SDS011;37774;52.192;4.584;2022-08-02T05:05:26;2.28;;;1.25;;
51686;SDS011;37774;52.192;4.584;2022-08-02T05:07:53;5.00;;;1.80;;
51686;SDS011;37774;52.192;4.584;2022-08-02T05:10:20;4.75;;;1.35;;
51686;SDS011;37774;52.192;4.584;2022-08-02T05:12:48;7.00;;;1.65;;
51686;SDS011;37774;52.192;4.584;2022-08-02T05:15:14;5.72;;;1.55;;
51686;SDS011;37774;52.192;4.584;2022-08-02T05:17:42;6.10;;;1.55;;
51686;SDS011;37774;52.192;4.584;2022-08-02T05:20:12;2.78;;;1.23;;
51686;SDS011;37774;52.192;4.584;2022-08-02T05:22:40;4.20;;;1.40;;
51686;SDS011;37774;52.192;4.584;2022-08-02T05:25:07;3.45;;;1.30;;
51686;SDS011;37774;52.192;4.584;2022-08-02T05:27:35;6.45;;;1.48;;
51686;SDS011;37774;52.192;4.584;2022-08-02T05:30:02;4.80;;;1.50;;
51686;SDS011;37774;52.192;4.584;2022-08-02T05:32:30;3.65;;;1.65;;
51686;SDS011;37774;52.192;4.584;2022-08-02T05:34:58;2.95;;;1.45;;
51686;SDS011;37774;52.192;4.584;2022-08-02T05:37:27;4.82;;;1.45;;
51686;SDS011;37774;52.192;4.584;2022-08-02T05:39:53;5.65;;;1.45;;
51686;SDS011;37774;52.192;4.584;2022-08-02T05:42:20;3.13;;;1.60;;
51686;SDS011;37774;52.192;4.584;2022-08-02T05:44:47;6.38;;;1.63;;
51686;SDS011;37774;52.192;4.584;2022-08-02T05:47:14;5.43;;;1.35;;
51686;SDS011;37774;52.192;4.584;2022-08-02T05:49:40;5.68;;;1.67;;
51686;SDS011;37774;52.192;4.584;2022-08-02T05:52:10;5.30;;;1.90;;
51686;SDS011;37774;52.192;4.584;2022-08-02T05:54:44;7.20;;;1.63;;
51686;SDS011;37774;52.192;4.584;2022-08-02T05:57:16;4.70;;;1.88;;
51686;SDS011;37774;52.192;4.584;2022-08-02T05:59:52;7.20;;;2.22;;
51686;SDS011;37774;52.192;4.584;2022-08-02T06:02:34;5.15;;;1.55;;
51686;SDS011;37774;52.192;4.584;2022-08-02T06:05:09;4.90;;;1.52;;
51686;SDS011;37774;52.192;4.584;2022-08-02T06:07:39;6.60;;;2.20;;
51686;SDS011;37774;52.192;4.584;2022-08-02T06:10:09;5.88;;;1.92;;
51686;SDS011;37774;52.192;4.584;2022-08-02T06:12:40;12.88;;;2.00;;
51686;SDS011;37774;52.192;4.584;2022-08-02T06:15:13;9.63;;;2.53;;
51686;SDS011;37774;52.192;4.584;2022-08-02T06:17:41;3.55;;;1.60;;
51686;SDS011;37774;52.192;4.584;2022-08-02T06:20:09;6.95;;;2.10;;
51686;SDS011;37774;52.192;4.584;2022-08-02T06:22:39;3.85;;;2.08;;
51686;SDS011;37774;52.192;4.584;2022-08-02T06:25:08;7.80;;;2.15;;
51686;SDS011;37774;52.192;4.584;2022-08-02T06:27:36;8.35;;;2.38;;
51686;SDS011;37774;52.192;4.584;2022-08-02T06:30:03;12.77;;;2.88;;
51686;SDS011;37774;52.192;4.584;2022-08-02T06:32:31;8.88;;;2.85;;
51686;SDS011;37774;52.192;4.584;2022-08-02T06:34:58;8.50;;;3.15;;
51686;SDS011;37774;52.192;4.584;2022-08-02T06:37:25;6.35;;;2.60;;
51686;SDS011;37774;52.192;4.584;2022-08-02T06:39:58;10.15;;;3.97;;
51686;SDS011;37774;52.192;4.584;2022-08-02T06:42:31;7.75;;;3.42;;
51686;SDS011;37774;52.192;4.584;2022-08-02T06:45:08;5.43;;;2.90;;
51686;SDS011;37774;52.192;4.584;2022-08-02T06:47:35;7.00;;;3.33;;
51686;SDS011;37774;52.192;4.584;2022-08-02T06:50:02;9.55;;;2.80;;
51686;SDS011;37774;52.192;4.584;2022-08-02T06:52:29;9.70;;;3.58;;
51686;SDS011;37774;52.192;4.584;2022-08-02T06:54:57;7.30;;;3.00;;
51686;SDS011;37774;52.192;4.584;2022-08-02T06:57:24;9.38;;;4.55;;
51686;SDS011;37774;52.192;4.584;2022-08-02T06:59:53;12.80;;;5.30;;
51686;SDS011;37774;52.192;4.584;2022-08-02T07:02:20;8.38;;;4.00;;
51686;SDS011;37774;52.192;4.584;2022-08-02T07:04:47;8.23;;;4.53;;
51686;SDS011;37774;52.192;4.584;2022-08-02T07:07:13;9.02;;;4.82;;
51686;SDS011;37774;52.192;4.584;2022-08-02T07:09:41;17.88;;;5.60;;
51686;SDS011;37774;52.192;4.584;2022-08-02T07:12:08;13.82;;;5.95;;
51686;SDS011;37774;52.192;4.584;2022-08-02T07:14:34;21.70;;;7.38;;
51686;SDS011;37774;52.192;4.584;2022-08-02T07:17:02;16.20;;;8.70;;
51686;SDS011;37774;52.192;4.584;2022-08-02T07:19:29;21.48;;;9.10;;
51686;SDS011;37774;52.192;4.584;2022-08-02T07:21:56;22.73;;;9.05;;
51686;SDS011;37774;52.192;4.584;2022-08-02T07:24:23;23.27;;;8.95;;
51686;SDS011;37774;52.192;4.584;2022-08-02T07:26:49;25.92;;;9.05;;
51686;SDS011;37774;52.192;4.584;2022-08-02T07:29:16;25.25;;;9.85;;
51686;SDS011;37774;52.192;4.584;2022-08-02T07:31:43;16.98;;;8.02;;
51686;SDS011;37774;52.192;4.584;2022-08-02T07:34:11;12.95;;;7.07;;
51686;SDS011;37774;52.192;4.584;2022-08-02T07:36:37;20.13;;;8.77;;
51686;SDS011;37774;52.192;4.584;2022-08-02T07:39:04;23.92;;;8.13;;
51686;SDS011;37774;52.192;4.584;2022-08-02T07:41:31;17.58;;;7.93;;
51686;SDS011;37774;52.192;4.584;2022-08-02T07:43:58;19.08;;;8.38;;
51686;SDS011;37774;52.192;4.584;2022-08-02T07:46:24;23.25;;;9.52;;
51686;SDS011;37774;52.192;4.584;2022-08-02T07:48:51;20.70;;;8.38;;
51686;SDS011;37774;52.192;4.584;2022-08-02T07:51:20;27.27;;;10.15;;
51686;SDS011;37774;52.192;4.584;2022-08-02T07:53:47;23.10;;;10.00;;
51686;SDS011;37774;52.192;4.584;2022-08-02T07:56:14;27.35;;;10.45;;
51686;SDS011;37774;52.192;4.584;2022-08-02T07:58:41;32.50;;;10.63;;
51686;SDS011;37774;52.192;4.584;2022-08-02T08:01:08;17.05;;;10.07;;
51686;SDS011;37774;52.192;4.584;2022-08-02T08:03:35;21.48;;;10.20;;
51686;SDS011;37774;52.192;4.584;2022-08-02T08:06:01;21.05;;;10.18;;
51686;SDS011;37774;52.192;4.584;2022-08-02T08:08:30;19.52;;;10.10;;
51686;SDS011;37774;52.192;4.584;2022-08-02T08:10:56;26.30;;;11.35;;
51686;SDS011;37774;52.192;4.584;2022-08-02T08:13:23;25.20;;;10.93;;
51686;SDS011;37774;52.192;4.584;2022-08-02T08:15:50;28.33;;;11.52;;
51686;SDS011;37774;52.192;4.584;2022-08-02T08:18:17;21.77;;;12.73;;
51686;SDS011;37774;52.192;4.584;2022-08-02T08:20:43;32.88;;;13.82;;
51686;SDS011;37774;52.192;4.584;2022-08-02T08:23:10;22.55;;;12.73;;
51686;SDS011;37774;52.192;4.584;2022-08-02T08:25:38;24.15;;;10.95;;
51686;SDS011;37774;52.192;4.584;2022-08-02T08:28:05;24.40;;;11.77;;
51686;SDS011;37774;52.192;4.584;2022-08-02T08:30:32;20.85;;;10.20;;
51686;SDS011;37774;52.192;4.584;2022-08-02T08:32:59;22.85;;;10.38;;
51686;SDS011;37774;52.192;4.584;2022-08-02T08:35:26;19.30;;;10.88;;
51686;SDS011;37774;52.192;4.584;2022-08-02T08:37:52;16.33;;;9.57;;
51686;SDS011;37774;52.192;4.584;2022-08-02T08:40:19;17.33;;;9.20;;
51686;SDS011;37774;52.192;4.584;2022-08-02T08:42:47;17.98;;;9.52;;
51686;SDS011;37774;52.192;4.584;2022-08-02T08:45:14;22.83;;;8.88;;
51686;SDS011;37774;52.192;4.584;2022-08-02T08:47:42;17.73;;;9.10;;
51686;SDS011;37774;52.192;4.584;2022-08-02T08:50:09;15.07;;;7.90;;
51686;SDS011;37774;52.192;4.584;2022-08-02T08:52:40;15.80;;;7.10;;
51686;SDS011;37774;52.192;4.584;2022-08-02T08:55:11;12.68;;;7.38;;
51686;SDS011;37774;52.192;4.584;2022-08-02T08:57:40;12.30;;;6.88;;
51686;SDS011;37774;52.192;4.584;2022-08-02T09:00:11;13.15;;;6.95;;
51686;SDS011;37774;52.192;4.584;2022-08-02T09:02:40;12.70;;;6.82;;
51686;SDS011;37774;52.192;4.584;2022-08-02T09:05:09;11.80;;;6.20;;
51686;SDS011;37774;52.192;4.584;2022-08-02T09:07:36;15.52;;;7.35;;
51686;SDS011;37774;52.192;4.584;2022-08-02T09:13:04;17.50;;;6.78;;
51686;SDS011;37774;52.192;4.584;2022-08-02T09:15:34;14.35;;;7.38;;
51686;SDS011;37774;52.192;4.584;2022-08-02T09:18:01;17.17;;;6.63;;
51686;SDS011;37774;52.192;4.584;2022-08-02T09:20:28;15.68;;;7.68;;
51686;SDS011;37774;52.192;4.584;2022-08-02T09:23:04;17.65;;;8.13;;
51686;SDS011;37774;52.192;4.584;2022-08-02T09:25:31;20.45;;;9.50;;
51686;SDS011;37774;52.192;4.584;2022-08-02T09:27:58;11.57;;;7.57;;
51686;SDS011;37774;52.192;4.584;2022-08-02T09:30:26;16.20;;;7.72;;
51686;SDS011;37774;52.192;4.584;2022-08-02T09:32:54;17.80;;;7.93;;
51686;SDS011;37774;52.192;4.584;2022-08-02T09:35:30;13.80;;;8.07;;
51686;SDS011;37774;52.192;4.584;2022-08-02T09:38:07;15.73;;;6.60;;
51686;SDS011;37774;52.192;4.584;2022-08-02T09:40:34;10.38;;;6.63;;
51686;SDS011;37774;52.192;4.584;2022-08-02T09:43:01;18.10;;;8.07;;
51686;SDS011;37774;52.192;4.584;2022-08-02T09:45:31;12.02;;;6.32;;
51686;SDS011;37774;52.192;4.584;2022-08-02T09:48:01;16.02;;;7.30;;
51686;SDS011;37774;52.192;4.584;2022-08-02T09:50:28;16.25;;;7.53;;
51686;SDS011;37774;52.192;4.584;2022-08-02T09:52:56;15.20;;;7.90;;
51686;SDS011;37774;52.192;4.584;2022-08-02T09:55:23;12.45;;;6.45;;
51686;SDS011;37774;52.192;4.584;2022-08-02T09:57:51;9.48;;;6.10;;
51686;SDS011;37774;52.192;4.584;2022-08-02T10:00:18;11.00;;;5.32;;
51686;SDS011;37774;52.192;4.584;2022-08-02T10:03:05;14.40;;;6.30;;
51686;SDS011;37774;52.192;4.584;2022-08-02T10:08:10;11.57;;;5.20;;
51686;SDS011;37774;52.192;4.584;2022-08-02T10:10:38;8.48;;;5.30;;
51686;SDS011;37774;52.192;4.584;2022-08-02T10:13:05;8.95;;;4.07;;
51686;SDS011;37774;52.192;4.584;2022-08-02T10:15:33;8.48;;;4.00;;
51686;SDS011;37774;52.192;4.584;2022-08-02T10:18:01;13.15;;;5.10;;
51686;SDS011;37774;52.192;4.584;2022-08-02T10:20:29;9.10;;;4.60;;
51686;SDS011;37774;52.192;4.584;2022-08-02T10:23:01;10.25;;;5.47;;
51686;SDS011;37774;52.192;4.584;2022-08-02T10:25:29;10.55;;;5.15;;
51686;SDS011;37774;52.192;4.584;2022-08-02T10:27:56;15.20;;;5.75;;
51686;SDS011;37774;52.192;4.584;2022-08-02T10:30:23;13.45;;;4.80;;
51686;SDS011;37774;52.192;4.584;2022-08-02T10:32:52;11.82;;;5.13;;
51686;SDS011;37774;52.192;4.584;2022-08-02T10:35:24;8.27;;;4.82;;
51686;SDS011;37774;52.192;4.584;2022-08-02T10:37:53;8.40;;;5.28;;
51686;SDS011;37774;52.192;4.584;2022-08-02T10:40:21;8.23;;;4.47;;
51686;SDS011;37774;52.192;4.584;2022-08-02T10:42:50;9.65;;;5.20;;
51686;SDS011;37774;52.192;4.584;2022-08-02T10:45:19;7.22;;;4.40;;
51686;SDS011;37774;52.192;4.584;2022-08-02T10:47:57;7.93;;;4.22;;
51686;SDS011;37774;52.192;4.584;2022-08-02T10:53:27;7.65;;;3.30;;
51686;SDS011;37774;52.192;4.584;2022-08-02T10:55:56;10.45;;;3.20;;
51686;SDS011;37774;52.192;4.584;2022-08-02T10:58:24;7.05;;;2.95;;
51686;SDS011;37774;52.192;4.584;2022-08-02T11:00:54;9.32;;;2.85;;
51686;SDS011;37774;52.192;4.584;2022-08-02T11:03:34;5.82;;;2.65;;
51686;SDS011;37774;52.192;4.584;2022-08-02T11:06:04;12.88;;;3.47;;
51686;SDS011;37774;52.192;4.584;2022-08-02T11:08:34;8.30;;;3.05;;
51686;SDS011;37774;52.192;4.584;2022-08-02T11:11:14;8.55;;;3.30;;
51686;SDS011;37774;52.192;4.584;2022-08-02T11:14:00;7.07;;;3.78;;
51686;SDS011;37774;52.192;4.584;2022-08-02T11:22:36;4.25;;;2.95;;
51686;SDS011;37774;52.192;4.584;2022-08-02T11:28:08;8.82;;;3.97;;
51686;SDS011;37774;52.192;4.584;2022-08-02T11:30:36;7.78;;;4.03;;
51686;SDS011;37774;52.192;4.584;2022-08-02T11:33:03;4.43;;;3.22;;
51686;SDS011;37774;52.192;4.584;2022-08-02T11:35:31;6.40;;;3.33;;
51686;SDS011;37774;52.192;4.584;2022-08-02T11:38:12;14.98;;;4.07;;
51686;SDS011;37774;52.192;4.584;2022-08-02T11:40:41;7.20;;;3.72;;
51686;SDS011;37774;52.192;4.584;2022-08-02T11:43:17;6.28;;;3.50;;
51686;SDS011;37774;52.192;4.584;2022-08-02T11:45:45;8.77;;;3.80;;
51686;SDS011;37774;52.192;4.584;2022-08-02T11:48:12;6.80;;;3.47;;
51686;SDS011;37774;52.192;4.584;2022-08-02T11:50:39;10.75;;;2.72;;
51686;SDS011;37774;52.192;4.584;2022-08-02T11:53:12;6.60;;;3.25;;
51686;SDS011;37774;52.192;4.584;2022-08-02T11:55:41;8.00;;;2.80;;
51686;SDS011;37774;52.192;4.584;2022-08-02T11:58:08;3.10;;;2.35;;
51686;SDS011;37774;52.192;4.584;2022-08-02T12:00:36;4.05;;;1.45;;
51686;SDS011;37774;52.192;4.584;2022-08-02T12:03:04;10.38;;;2.33;;
51686;SDS011;37774;52.192;4.584;2022-08-02T12:05:32;5.95;;;2.63;;
51686;SDS011;37774;52.192;4.584;2022-08-02T12:07:59;11.63;;;2.75;;
51686;SDS011;37774;52.192;4.584;2022-08-02T12:10:26;7.85;;;2.30;;
51686;SDS011;37774;52.192;4.584;2022-08-02T12:12:54;5.40;;;1.92;;
51686;SDS011;37774;52.192;4.584;2022-08-02T12:15:30;5.80;;;1.95;;
51686;SDS011;37774;52.192;4.584;2022-08-02T12:17:59;3.20;;;1.70;;
51686;SDS011;37774;52.192;4.584;2022-08-02T12:20:44;7.53;;;2.15;;
51686;SDS011;37774;52.192;4.584;2022-08-02T12:23:10;7.53;;;2.58;;
51686;SDS011;37774;52.192;4.584;2022-08-02T12:25:37;4.88;;;2.05;;
51686;SDS011;37774;52.192;4.584;2022-08-02T12:28:13;14.68;;;2.45;;
51686;SDS011;37774;52.192;4.584;2022-08-02T12:33:19;3.17;;;1.80;;
51686;SDS011;37774;52.192;4.584;2022-08-02T12:35:46;7.28;;;1.98;;
51686;SDS011;37774;52.192;4.584;2022-08-02T12:38:13;4.22;;;2.13;;
51686;SDS011;37774;52.192;4.584;2022-08-02T12:40:40;10.73;;;2.30;;
51686;SDS011;37774;52.192;4.584;2022-08-02T12:43:14;5.72;;;2.00;;
51686;SDS011;37774;52.192;4.584;2022-08-02T12:45:45;8.02;;;2.22;;
51686;SDS011;37774;52.192;4.584;2022-08-02T12:48:14;4.22;;;1.92;;
51686;SDS011;37774;52.192;4.584;2022-08-02T12:50:43;6.35;;;2.38;;
51686;SDS011;37774;52.192;4.584;2022-08-02T12:53:11;9.35;;;2.38;;
51686;SDS011;37774;52.192;4.584;2022-08-02T12:55:46;7.53;;;1.55;;
51686;SDS011;37774;52.192;4.584;2022-08-02T12:58:14;7.10;;;2.10;;
51686;SDS011;37774;52.192;4.584;2022-08-02T13:00:42;3.63;;;1.60;;
51686;SDS011;37774;52.192;4.584;2022-08-02T13:03:17;5.00;;;1.70;;
51686;SDS011;37774;52.192;4.584;2022-08-02T13:05:45;12.07;;;1.90;;
51686;SDS011;37774;52.192;4.584;2022-08-02T13:08:12;3.22;;;1.08;;
51686;SDS011;37774;52.192;4.584;2022-08-02T13:10:39;4.55;;;1.75;;
51686;SDS011;37774;52.192;4.584;2022-08-02T13:13:06;4.05;;;1.30;;
51686;SDS011;37774;52.192;4.584;2022-08-02T13:15:33;3.00;;;1.30;;
51686;SDS011;37774;52.192;4.584;2022-08-02T13:18:02;6.30;;;1.30;;
51686;SDS011;37774;52.192;4.584;2022-08-02T13:20:29;6.53;;;1.92;;
51686;SDS011;37774;52.192;4.584;2022-08-02T13:22:56;4.85;;;1.50;;
51686;SDS011;37774;52.192;4.584;2022-08-02T13:25:22;7.65;;;1.83;;
51686;SDS011;37774;52.192;4.584;2022-08-02T13:27:49;10.32;;;1.67;;
51686;SDS011;37774;52.192;4.584;2022-08-02T13:30:16;8.43;;;3.00;;
51686;SDS011;37774;52.192;4.584;2022-08-02T13:32:44;5.03;;;1.95;;
51686;SDS011;37774;52.192;4.584;2022-08-02T13:35:13;5.88;;;1.75;;
51686;SDS011;37774;52.192;4.584;2022-08-02T13:37:40;5.13;;;1.45;;
51686;SDS011;37774;52.192;4.584;2022-08-02T13:40:07;5.72;;;1.60;;
51686;SDS011;37774;52.192;4.584;2022-08-02T13:42:35;16.70;;;2.28;;
51686;SDS011;37774;52.192;4.584;2022-08-02T13:45:02;7.28;;;2.45;;
51686;SDS011;37774;52.192;4.584;2022-08-02T13:47:29;30.67;;;2.63;;
51686;SDS011;37774;52.192;4.584;2022-08-02T13:49:56;8.77;;;1.98;;
51686;SDS011;37774;52.192;4.584;2022-08-02T13:52:24;9.70;;;1.70;;
51686;SDS011;37774;52.192;4.584;2022-08-02T13:54:51;8.18;;;1.83;;
51686;SDS011;37774;52.192;4.584;2022-08-02T13:57:18;8.52;;;1.92;;
51686;SDS011;37774;52.192;4.584;2022-08-02T13:59:44;7.38;;;1.60;;
51686;SDS011;37774;52.192;4.584;2022-08-02T14:02:11;6.25;;;1.63;;
51686;SDS011;37774;52.192;4.584;2022-08-02T14:04:38;6.53;;;1.70;;
51686;SDS011;37774;52.192;4.584;2022-08-02T14:07:04;4.85;;;1.70;;
51686;SDS011;37774;52.192;4.584;2022-08-02T14:09:33;4.60;;;2.10;;
51686;SDS011;37774;52.192;4.584;2022-08-02T14:12:00;13.18;;;2.15;;
51686;SDS011;37774;52.192;4.584;2022-08-02T14:14:27;8.82;;;1.65;;
51686;SDS011;37774;52.192;4.584;2022-08-02T14:16:54;5.13;;;1.67;;
51686;SDS011;37774;52.192;4.584;2022-08-02T14:19:21;6.63;;;1.98;;
51686;SDS011;37774;52.192;4.584;2022-08-02T14:21:48;6.85;;;2.13;;
51686;SDS011;37774;52.192;4.584;2022-08-02T14:24:15;17.23;;;2.88;;
51686;SDS011;37774;52.192;4.584;2022-08-02T14:26:44;7.70;;;1.90;;
51686;SDS011;37774;52.192;4.584;2022-08-02T14:29:11;4.75;;;1.85;;
51686;SDS011;37774;52.192;4.584;2022-08-02T14:31:38;6.95;;;1.73;;
51686;SDS011;37774;52.192;4.584;2022-08-02T14:34:05;10.90;;;2.30;;
51686;SDS011;37774;52.192;4.584;2022-08-02T14:36:32;12.05;;;2.72;;
51686;SDS011;37774;52.192;4.584;2022-08-02T14:38:59;7.18;;;2.75;;
51686;SDS011;37774;52.192;4.584;2022-08-02T14:41:26;6.97;;;2.03;;
51686;SDS011;37774;52.192;4.584;2022-08-02T14:43:54;6.35;;;1.58;;
51686;SDS011;37774;52.192;4.584;2022-08-02T14:46:30;6.63;;;1.85;;
51686;SDS011;37774;52.192;4.584;2022-08-02T14:48:57;5.10;;;1.33;;
51686;SDS011;37774;52.192;4.584;2022-08-02T14:51:26;10.07;;;1.80;;
51686;SDS011;37774;52.192;4.584;2022-08-02T14:53:53;6.60;;;1.40;;
51686;SDS011;37774;52.192;4.584;2022-08-02T14:56:20;9.50;;;1.75;;
51686;SDS011;37774;52.192;4.584;2022-08-02T14:58:47;8.77;;;1.60;;
51686;SDS011;37774;52.192;4.584;2022-08-02T15:01:15;6.53;;;1.52;;
51686;SDS011;37774;52.192;4.584;2022-08-02T15:03:42;5.28;;;1.55;;
51686;SDS011;37774;52.192;4.584;2022-08-02T15:06:09;14.15;;;1.25;;
51686;SDS011;37774;52.192;4.584;2022-08-02T15:08:35;7.35;;;1.63;;
51686;SDS011;37774;52.192;4.584;2022-08-02T15:11:02;7.78;;;1.20;;
51686;SDS011;37774;52.192;4.584;2022-08-02T15:13:29;10.65;;;1.98;;